sensor_id;sensor_type;location;lat;lon;timestamp;noise_LAeq;noise_LA_min;noise_LA_max;noise_LA01;noise_LA95
48967;Laerm;46511;53.148;8.204;2023-05-07T00:01:52;49.10;37.88;62.58;;
48967;Laerm;46511;53.148;8.204;2023-05-07T00:04:24;51.87;38.95;72.17;;
48967;Laerm;46511;53.148;8.204;2023-05-07T00:06:50;45.62;36.45;63.79;;
48967;Laerm;46511;53.148;8.204;2023-05-07T00:09:22;48.61;37.70;67.60;;
48967;Laerm;46511;53.148;8.204;2023-05-07T00:11:53;42.07;36.69;59.72;;
48967;Laerm;46511;53.148;8.204;2023-05-07T00:14:24;45.99;37.70;64.41;;
48967;Laerm;46511;53.148;8.204;2023-05-07T00:16:56;46.08;36.45;66.79;;
48967;Laerm;46511;53.148;8.204;2023-05-07T00:19:27;51.50;37.88;68.14;;
48967;Laerm;46511;53.148;8.204;2023-05-07T00:21:58;47.94;37.70;68.90;;
48967;Laerm;46511;53.148;8.204;2023-05-07T00:24:29;51.67;38.37;66.75;;
48967;Laerm;46511;53.148;8.204;2023-05-07T00:27:01;42.33;37.32;50.70;;
48967;Laerm;46511;53.148;8.204;2023-05-07T00:29:32;47.92;38.05;65.83;;
48967;Laerm;46511;53.148;8.204;2023-05-07T00:32:03;45.03;37.12;66.05;;
48967;Laerm;46511;53.148;8.204;2023-05-07T00:34:35;45.83;38.37;64.65;;
48967;Laerm;46511;53.148;8.204;2023-05-07T00:37:06;42.66;38.37;55.46;;
48967;Laerm;46511;53.148;8.204;2023-05-07T00:39:35;48.26;38.37;61.86;;
48967;Laerm;46511;53.148;8.204;2023-05-07T00:42:06;42.94;38.21;58.53;;
48967;Laerm;46511;53.148;8.204;2023-05-07T00:44:39;41.55;37.88;44.73;;
48967;Laerm;46511;53.148;8.204;2023-05-07T00:47:10;46.69;38.37;66.91;;
48967;Laerm;46511;53.148;8.204;2023-05-07T00:49:43;43.19;36.77;63.39;;
48967;Laerm;46511;53.148;8.204;2023-05-07T00:52:16;52.08;38.67;69.18;;
48967;Laerm;46511;53.148;8.204;2023-05-07T00:54:48;45.67;38.52;64.99;;
48967;Laerm;46511;53.148;8.204;2023-05-07T00:57:14;46.30;35.66;63.95;;
48967;Laerm;46511;53.148;8.204;2023-05-07T00:59:45;50.79;37.32;73.79;;
48967;Laerm;46511;53.148;8.204;2023-05-07T01:02:17;46.73;38.05;65.13;;
48967;Laerm;46511;53.148;8.204;2023-05-07T01:04:48;49.41;37.88;75.43;;
48967;Laerm;46511;53.148;8.204;2023-05-07T01:07:19;46.04;38.81;64.80;;
48967;Laerm;46511;53.148;8.204;2023-05-07T01:09:51;43.01;38.81;61.22;;
48967;Laerm;46511;53.148;8.204;2023-05-07T01:12:24;51.32;38.05;65.67;;
48967;Laerm;46511;53.148;8.204;2023-05-07T01:14:51;50.36;37.70;71.39;;
48967;Laerm;46511;53.148;8.204;2023-05-07T01:17:23;50.22;37.88;71.59;;
48967;Laerm;46511;53.148;8.204;2023-05-07T01:19:54;43.33;37.32;66.39;;
48967;Laerm;46511;53.148;8.204;2023-05-07T01:22:32;41.75;38.05;49.23;;
48967;Laerm;46511;53.148;8.204;2023-05-07T01:25:05;48.90;37.12;71.69;;
48967;Laerm;46511;53.148;8.204;2023-05-07T01:27:37;42.95;38.05;58.39;;
48967;Laerm;46511;53.148;8.204;2023-05-07T01:30:08;53.80;38.81;74.87;;
48967;Laerm;46511;53.148;8.204;2023-05-07T01:32:51;46.47;38.21;69.43;;
48967;Laerm;46511;53.148;8.204;2023-05-07T01:35:29;48.61;39.08;70.19;;
48967;Laerm;46511;53.148;8.204;2023-05-07T01:38:00;53.56;37.88;68.46;;
48967;Laerm;46511;53.148;8.204;2023-05-07T01:40:35;45.26;37.12;67.75;;
48967;Laerm;46511;53.148;8.204;2023-05-07T01:43:07;52.45;38.52;69.11;;
48967;Laerm;46511;53.148;8.204;2023-05-07T01:45:39;49.42;38.67;74.13;;
48967;Laerm;46511;53.148;8.204;2023-05-07T01:48:12;47.19;38.52;69.86;;
48967;Laerm;46511;53.148;8.204;2023-05-07T01:50:46;52.66;36.69;74.89;;
48967;Laerm;46511;53.148;8.204;2023-05-07T01:53:17;52.16;38.81;70.65;;
48967;Laerm;46511;53.148;8.204;2023-05-07T01:55:48;44.20;38.05;61.38;;
48967;Laerm;46511;53.148;8.204;2023-05-07T01:58:19;49.00;36.69;65.16;;
48967;Laerm;46511;53.148;8.204;2023-05-07T02:00:51;42.91;37.32;61.95;;
48967;Laerm;46511;53.148;8.204;2023-05-07T02:03:22;44.20;38.37;64.90;;
48967;Laerm;46511;53.148;8.204;2023-05-07T02:05:54;51.59;37.12;71.07;;
48967;Laerm;46511;53.148;8.204;2023-05-07T02:08:25;46.62;38.05;68.92;;
48967;Laerm;46511;53.148;8.204;2023-05-07T02:10:56;48.36;38.95;71.79;;
48967;Laerm;46511;53.148;8.204;2023-05-07T02:13:32;42.89;35.36;64.30;;
48967;Laerm;46511;53.148;8.204;2023-05-07T02:16:04;42.48;37.12;61.28;;
48967;Laerm;46511;53.148;8.204;2023-05-07T02:18:31;42.23;37.32;58.32;;
48967;Laerm;46511;53.148;8.204;2023-05-07T02:21:03;41.80;37.70;58.05;;
48967;Laerm;46511;53.148;8.204;2023-05-07T02:23:34;41.60;37.32;53.40;;
48967;Laerm;46511;53.148;8.204;2023-05-07T02:26:05;43.00;34.69;61.00;;
48967;Laerm;46511;53.148;8.204;2023-05-07T02:28:37;44.51;36.69;62.47;;
48967;Laerm;46511;53.148;8.204;2023-05-07T02:31:08;46.94;38.37;66.13;;
48967;Laerm;46511;53.148;8.204;2023-05-07T02:33:39;47.82;38.67;65.34;;
48967;Laerm;46511;53.148;8.204;2023-05-07T02:36:11;47.60;36.91;64.45;;
48967;Laerm;46511;53.148;8.204;2023-05-07T02:38:43;46.06;38.67;66.96;;
48967;Laerm;46511;53.148;8.204;2023-05-07T02:41:14;51.07;38.05;76.03;;
48967;Laerm;46511;53.148;8.204;2023-05-07T02:43:46;47.57;37.88;66.84;;
48967;Laerm;46511;53.148;8.204;2023-05-07T02:46:17;51.16;39.08;68.72;;
48967;Laerm;46511;53.148;8.204;2023-05-07T02:48:48;49.42;38.52;63.17;;
48967;Laerm;46511;53.148;8.204;2023-05-07T02:51:21;50.09;38.81;64.65;;
48967;Laerm;46511;53.148;8.204;2023-05-07T02:53:53;50.71;39.46;66.81;;
48967;Laerm;46511;53.148;8.204;2023-05-07T02:56:26;54.85;40.80;69.86;;
48967;Laerm;46511;53.148;8.204;2023-05-07T02:58:57;56.02;40.80;71.11;;
48967;Laerm;46511;53.148;8.204;2023-05-07T03:01:29;57.02;40.89;74.26;;
48967;Laerm;46511;53.148;8.204;2023-05-07T03:04:00;56.36;41.68;72.01;;
48967;Laerm;46511;53.148;8.204;2023-05-07T03:06:32;55.80;41.30;70.84;;
48967;Laerm;46511;53.148;8.204;2023-05-07T03:09:03;54.98;41.30;71.57;;
48967;Laerm;46511;53.148;8.204;2023-05-07T03:11:29;55.52;41.06;75.94;;
48967;Laerm;46511;53.148;8.204;2023-05-07T03:14:01;51.50;40.98;69.02;;
48967;Laerm;46511;53.148;8.204;2023-05-07T03:16:32;48.52;40.98;73.20;;
48967;Laerm;46511;53.148;8.204;2023-05-07T03:19:04;58.70;41.75;70.13;;
48967;Laerm;46511;53.148;8.204;2023-05-07T03:21:35;51.58;41.75;67.34;;
48967;Laerm;46511;53.148;8.204;2023-05-07T03:24:06;51.57;40.43;64.62;;
48967;Laerm;46511;53.148;8.204;2023-05-07T03:26:38;47.55;39.21;67.81;;
48967;Laerm;46511;53.148;8.204;2023-05-07T03:29:04;50.67;39.08;68.47;;
48967;Laerm;46511;53.148;8.204;2023-05-07T03:31:35;48.76;39.46;75.61;;
48967;Laerm;46511;53.148;8.204;2023-05-07T03:34:06;45.45;38.52;66.78;;
48967;Laerm;46511;53.148;8.204;2023-05-07T03:36:38;53.71;40.13;70.75;;
48967;Laerm;46511;53.148;8.204;2023-05-07T03:39:11;50.22;38.37;71.00;;
48967;Laerm;46511;53.148;8.204;2023-05-07T03:41:43;46.70;39.70;60.82;;
48967;Laerm;46511;53.148;8.204;2023-05-07T03:44:14;48.50;39.70;71.72;;
48967;Laerm;46511;53.148;8.204;2023-05-07T03:46:45;55.71;39.34;79.70;;
48967;Laerm;46511;53.148;8.204;2023-05-07T03:49:17;52.09;39.08;68.12;;
48967;Laerm;46511;53.148;8.204;2023-05-07T03:51:43;48.25;39.34;65.97;;
48967;Laerm;46511;53.148;8.204;2023-05-07T03:54:14;50.68;39.46;70.66;;
48967;Laerm;46511;53.148;8.204;2023-05-07T03:56:46;52.21;40.71;70.33;;
48967;Laerm;46511;53.148;8.204;2023-05-07T03:59:17;54.16;39.92;82.37;;
48967;Laerm;46511;53.148;8.204;2023-05-07T04:01:48;44.87;38.05;62.87;;
48967;Laerm;46511;53.148;8.204;2023-05-07T04:04:19;52.06;39.70;69.92;;
48967;Laerm;46511;53.148;8.204;2023-05-07T04:06:51;51.75;39.58;70.02;;
48967;Laerm;46511;53.148;8.204;2023-05-07T04:09:22;47.26;39.81;66.82;;
48967;Laerm;46511;53.148;8.204;2023-05-07T04:11:53;49.26;38.21;73.75;;
48967;Laerm;46511;53.148;8.204;2023-05-07T04:14:25;47.33;35.94;69.06;;
48967;Laerm;46511;53.148;8.204;2023-05-07T04:16:56;49.51;38.95;66.19;;
48967;Laerm;46511;53.148;8.204;2023-05-07T04:19:27;49.71;38.95;72.15;;
48967;Laerm;46511;53.148;8.204;2023-05-07T04:21:59;51.86;40.45;75.51;;
48967;Laerm;46511;53.148;8.204;2023-05-07T04:24:33;50.71;39.21;71.56;;
48967;Laerm;46511;53.148;8.204;2023-05-07T04:27:04;45.97;39.08;69.43;;
48967;Laerm;46511;53.148;8.204;2023-05-07T04:29:37;50.01;40.13;64.50;;
48967;Laerm;46511;53.148;8.204;2023-05-07T04:32:09;53.82;39.08;74.88;;
48967;Laerm;46511;53.148;8.204;2023-05-07T04:34:40;48.47;39.08;65.39;;
48967;Laerm;46511;53.148;8.204;2023-05-07T04:37:12;47.22;39.81;71.22;;
48967;Laerm;46511;53.148;8.204;2023-05-07T04:39:43;44.04;37.32;57.41;;
48967;Laerm;46511;53.148;8.204;2023-05-07T04:42:18;51.48;38.81;65.75;;
48967;Laerm;46511;53.148;8.204;2023-05-07T04:44:53;46.99;39.46;67.12;;
48967;Laerm;46511;53.148;8.204;2023-05-07T04:47:24;57.72;38.95;80.10;;
48967;Laerm;46511;53.148;8.204;2023-05-07T04:49:56;55.74;39.58;72.49;;
48967;Laerm;46511;53.148;8.204;2023-05-07T04:52:28;53.85;39.08;71.07;;
48967;Laerm;46511;53.148;8.204;2023-05-07T04:55:00;50.95;40.43;74.19;;
48967;Laerm;46511;53.148;8.204;2023-05-07T04:57:32;55.69;41.14;76.71;;
48967;Laerm;46511;53.148;8.204;2023-05-07T05:00:04;50.03;40.03;70.69;;
48967;Laerm;46511;53.148;8.204;2023-05-07T05:02:36;53.26;40.23;71.83;;
48967;Laerm;46511;53.148;8.204;2023-05-07T05:05:08;43.44;39.46;49.78;;
48967;Laerm;46511;53.148;8.204;2023-05-07T05:07:34;50.97;38.67;75.31;;
48967;Laerm;46511;53.148;8.204;2023-05-07T05:10:06;48.83;39.34;64.47;;
48967;Laerm;46511;53.148;8.204;2023-05-07T05:12:37;53.68;39.08;76.85;;
48967;Laerm;46511;53.148;8.204;2023-05-07T05:15:09;53.54;39.81;77.93;;
48967;Laerm;46511;53.148;8.204;2023-05-07T05:17:41;54.61;40.13;73.11;;
48967;Laerm;46511;53.148;8.204;2023-05-07T05:20:12;57.60;39.58;74.23;;
48967;Laerm;46511;53.148;8.204;2023-05-07T05:22:43;53.53;40.43;69.75;;
48967;Laerm;46511;53.148;8.204;2023-05-07T05:25:15;51.72;39.46;72.74;;
48967;Laerm;46511;53.148;8.204;2023-05-07T05:27:46;53.43;40.23;76.61;;
48967;Laerm;46511;53.148;8.204;2023-05-07T05:30:17;48.72;40.03;69.42;;
48967;Laerm;46511;53.148;8.204;2023-05-07T05:32:49;55.35;37.88;78.01;;
48967;Laerm;46511;53.148;8.204;2023-05-07T05:35:20;48.80;38.95;68.27;;
48967;Laerm;46511;53.148;8.204;2023-05-07T05:37:51;45.11;38.67;59.70;;
48967;Laerm;46511;53.148;8.204;2023-05-07T05:40:22;51.63;40.33;66.94;;
48967;Laerm;46511;53.148;8.204;2023-05-07T05:42:54;57.26;39.46;76.42;;
48967;Laerm;46511;53.148;8.204;2023-05-07T05:45:25;44.56;40.43;58.14;;
48967;Laerm;46511;53.148;8.204;2023-05-07T05:47:57;48.95;39.46;73.07;;
48967;Laerm;46511;53.148;8.204;2023-05-07T05:50:28;47.52;40.53;68.09;;
48967;Laerm;46511;53.148;8.204;2023-05-07T05:52:59;46.94;39.08;69.44;;
48967;Laerm;46511;53.148;8.204;2023-05-07T05:55:31;51.23;38.37;76.21;;
48967;Laerm;46511;53.148;8.204;2023-05-07T05:57:59;54.89;40.03;74.71;;
48967;Laerm;46511;53.148;8.204;2023-05-07T06:00:32;50.12;38.95;70.01;;
48967;Laerm;46511;53.148;8.204;2023-05-07T06:03:03;48.81;40.03;62.90;;
48967;Laerm;46511;53.148;8.204;2023-05-07T06:05:34;51.84;40.23;78.44;;
48967;Laerm;46511;53.148;8.204;2023-05-07T06:08:05;50.94;39.08;64.51;;
48967;Laerm;46511;53.148;8.204;2023-05-07T06:10:37;51.39;39.81;72.42;;
48967;Laerm;46511;53.148;8.204;2023-05-07T06:13:08;49.88;40.43;66.69;;
48967;Laerm;46511;53.148;8.204;2023-05-07T06:15:40;51.05;39.58;73.79;;
48967;Laerm;46511;53.148;8.204;2023-05-07T06:18:11;49.51;39.46;68.86;;
48967;Laerm;46511;53.148;8.204;2023-05-07T06:20:37;57.05;41.61;72.90;;
48967;Laerm;46511;53.148;8.204;2023-05-07T06:23:09;50.90;40.79;65.54;;
48967;Laerm;46511;53.148;8.204;2023-05-07T06:25:40;50.43;39.70;70.03;;
48967;Laerm;46511;53.148;8.204;2023-05-07T06:28:11;45.27;39.92;63.43;;
48967;Laerm;46511;53.148;8.204;2023-05-07T06:30:42;45.09;39.46;57.54;;
48967;Laerm;46511;53.148;8.204;2023-05-07T06:33:14;54.67;39.34;70.35;;
48967;Laerm;46511;53.148;8.204;2023-05-07T06:35:45;44.16;39.08;58.26;;
48967;Laerm;46511;53.148;8.204;2023-05-07T06:38:16;53.63;41.46;69.94;;
48967;Laerm;46511;53.148;8.204;2023-05-07T06:40:49;57.31;40.71;72.83;;
48967;Laerm;46511;53.148;8.204;2023-05-07T06:43:20;49.20;41.06;66.34;;
48967;Laerm;46511;53.148;8.204;2023-05-07T06:45:51;52.01;40.03;64.86;;
48967;Laerm;46511;53.148;8.204;2023-05-07T06:48:23;54.70;39.81;81.61;;
48967;Laerm;46511;53.148;8.204;2023-05-07T06:50:54;53.28;40.71;66.93;;
48967;Laerm;46511;53.148;8.204;2023-05-07T06:53:28;58.12;41.30;82.97;;
48967;Laerm;46511;53.148;8.204;2023-05-07T06:56:01;45.36;40.62;58.71;;
48967;Laerm;46511;53.148;8.204;2023-05-07T06:58:32;62.94;41.68;76.91;;
48967;Laerm;46511;53.148;8.204;2023-05-07T07:01:04;48.35;40.71;72.09;;
48967;Laerm;46511;53.148;8.204;2023-05-07T07:03:35;50.07;40.62;68.62;;
48967;Laerm;46511;53.148;8.204;2023-05-07T07:06:01;56.45;40.71;83.74;;
48967;Laerm;46511;53.148;8.204;2023-05-07T07:08:33;51.08;41.06;68.85;;
48967;Laerm;46511;53.148;8.204;2023-05-07T07:11:06;51.68;40.89;70.71;;
48967;Laerm;46511;53.148;8.204;2023-05-07T07:13:37;49.86;39.81;65.99;;
48967;Laerm;46511;53.148;8.204;2023-05-07T07:16:08;53.92;40.62;65.94;;
48967;Laerm;46511;53.148;8.204;2023-05-07T07:18:40;51.18;40.53;67.84;;
48967;Laerm;46511;53.148;8.204;2023-05-07T07:21:11;57.19;41.06;77.87;;
48967;Laerm;46511;53.148;8.204;2023-05-07T07:23:42;48.60;40.23;69.05;;
48967;Laerm;46511;53.148;8.204;2023-05-07T07:26:14;53.50;40.98;75.90;;
48967;Laerm;46511;53.148;8.204;2023-05-07T07:28:45;53.90;40.96;77.40;;
48967;Laerm;46511;53.148;8.204;2023-05-07T07:31:17;53.02;41.68;70.27;;
48967;Laerm;46511;53.148;8.204;2023-05-07T07:33:48;53.08;40.80;71.11;;
48967;Laerm;46511;53.148;8.204;2023-05-07T07:36:21;46.49;39.70;63.44;;
48967;Laerm;46511;53.148;8.204;2023-05-07T07:38:53;58.19;40.80;69.42;;
48967;Laerm;46511;53.148;8.204;2023-05-07T07:41:24;55.90;40.98;69.43;;
48967;Laerm;46511;53.148;8.204;2023-05-07T07:43:51;55.51;42.22;70.25;;
48967;Laerm;46511;53.148;8.204;2023-05-07T07:46:22;53.34;41.89;68.85;;
48967;Laerm;46511;53.148;8.204;2023-05-07T07:48:54;52.89;41.46;67.50;;
48967;Laerm;46511;53.148;8.204;2023-05-07T07:51:25;50.35;41.46;64.74;;
48967;Laerm;46511;53.148;8.204;2023-05-07T07:53:57;57.88;45.97;69.82;;
48967;Laerm;46511;53.148;8.204;2023-05-07T07:56:23;55.90;45.91;71.74;;
48967;Laerm;46511;53.148;8.204;2023-05-07T07:58:55;58.18;45.39;73.70;;
48967;Laerm;46511;53.148;8.204;2023-05-07T08:01:27;56.67;40.98;73.98;;
48967;Laerm;46511;53.148;8.204;2023-05-07T08:03:58;50.11;41.61;66.10;;
48967;Laerm;46511;53.148;8.204;2023-05-07T08:06:34;59.41;44.35;69.97;;
48967;Laerm;46511;53.148;8.204;2023-05-07T08:09:05;54.27;41.81;72.38;;
48967;Laerm;46511;53.148;8.204;2023-05-07T08:11:36;47.55;41.53;68.19;;
48967;Laerm;46511;53.148;8.204;2023-05-07T08:14:08;53.01;42.47;64.47;;
48967;Laerm;46511;53.148;8.204;2023-05-07T08:16:39;51.41;41.14;64.22;;
48967;Laerm;46511;53.148;8.204;2023-05-07T08:19:06;57.91;44.94;68.22;;
48967;Laerm;46511;53.148;8.204;2023-05-07T08:21:40;60.78;44.90;78.06;;
48967;Laerm;46511;53.148;8.204;2023-05-07T08:24:11;60.85;44.43;75.97;;
48967;Laerm;46511;53.148;8.204;2023-05-07T08:26:43;56.01;44.04;72.41;;
48967;Laerm;46511;53.148;8.204;2023-05-07T08:29:15;53.39;42.09;71.70;;
48967;Laerm;46511;53.148;8.204;2023-05-07T08:31:46;53.33;41.82;74.02;;
48967;Laerm;46511;53.148;8.204;2023-05-07T08:34:17;55.99;41.30;77.86;;
48967;Laerm;46511;53.148;8.204;2023-05-07T08:36:49;54.73;42.22;69.61;;
48967;Laerm;46511;53.148;8.204;2023-05-07T08:39:23;58.07;42.88;73.12;;
48967;Laerm;46511;53.148;8.204;2023-05-07T08:41:55;58.10;42.71;80.12;;
48967;Laerm;46511;53.148;8.204;2023-05-07T08:44:28;54.75;42.76;75.45;;
48967;Laerm;46511;53.148;8.204;2023-05-07T08:47:09;56.00;42.41;75.48;;
48967;Laerm;46511;53.148;8.204;2023-05-07T08:49:41;58.61;42.22;76.69;;
48967;Laerm;46511;53.148;8.204;2023-05-07T08:52:13;57.12;43.04;74.62;;
48967;Laerm;46511;53.148;8.204;2023-05-07T08:54:44;55.93;43.86;79.37;;
48967;Laerm;46511;53.148;8.204;2023-05-07T08:57:15;55.42;42.93;79.20;;
48967;Laerm;46511;53.148;8.204;2023-05-07T08:59:47;56.47;41.38;79.08;;
48967;Laerm;46511;53.148;8.204;2023-05-07T09:02:18;59.16;42.41;77.01;;
48967;Laerm;46511;53.148;8.204;2023-05-07T09:04:49;56.15;46.95;76.20;;
48967;Laerm;46511;53.148;8.204;2023-05-07T09:07:22;54.36;42.29;75.67;;
48967;Laerm;46511;53.148;8.204;2023-05-07T09:09:53;49.34;42.29;73.74;;
48967;Laerm;46511;53.148;8.204;2023-05-07T09:12:26;50.17;41.30;71.08;;
48967;Laerm;46511;53.148;8.204;2023-05-07T09:14:59;53.79;42.71;65.65;;
48967;Laerm;46511;53.148;8.204;2023-05-07T09:17:25;54.54;41.22;70.01;;
48967;Laerm;46511;53.148;8.204;2023-05-07T09:19:56;51.62;42.09;68.33;;
48967;Laerm;46511;53.148;8.204;2023-05-07T09:22:33;57.10;42.98;72.40;;
48967;Laerm;46511;53.148;8.204;2023-05-07T09:25:06;54.55;42.29;70.53;;
48967;Laerm;46511;53.148;8.204;2023-05-07T09:27:33;55.56;42.93;67.05;;
48967;Laerm;46511;53.148;8.204;2023-05-07T09:30:07;58.22;42.59;76.54;;
48967;Laerm;46511;53.148;8.204;2023-05-07T09:32:39;47.43;42.09;61.94;;
48967;Laerm;46511;53.148;8.204;2023-05-07T09:35:17;56.00;42.41;73.34;;
48967;Laerm;46511;53.148;8.204;2023-05-07T09:37:49;54.17;42.16;72.83;;
48967;Laerm;46511;53.148;8.204;2023-05-07T09:40:21;56.62;41.61;73.12;;
48967;Laerm;46511;53.148;8.204;2023-05-07T09:42:54;57.42;42.16;74.03;;
48967;Laerm;46511;53.148;8.204;2023-05-07T09:45:29;48.12;41.06;62.58;;
48967;Laerm;46511;53.148;8.204;2023-05-07T09:48:01;55.41;42.41;68.07;;
48967;Laerm;46511;53.148;8.204;2023-05-07T09:50:37;57.98;41.22;79.76;;
48967;Laerm;46511;53.148;8.204;2023-05-07T09:53:12;56.67;42.19;74.98;;
48967;Laerm;46511;53.148;8.204;2023-05-07T09:55:45;48.93;42.09;65.03;;
48967;Laerm;46511;53.148;8.204;2023-05-07T09:58:18;54.76;41.94;73.84;;
48967;Laerm;46511;53.148;8.204;2023-05-07T10:00:50;55.38;41.68;70.20;;
48967;Laerm;46511;53.148;8.204;2023-05-07T10:03:22;53.58;42.98;69.34;;
48967;Laerm;46511;53.148;8.204;2023-05-07T10:05:56;55.45;41.22;71.08;;
48967;Laerm;46511;53.148;8.204;2023-05-07T10:08:30;54.91;40.53;70.80;;
48967;Laerm;46511;53.148;8.204;2023-05-07T10:11:03;56.87;42.03;79.98;;
48967;Laerm;46511;53.148;8.204;2023-05-07T10:13:31;59.00;43.97;74.38;;
48967;Laerm;46511;53.148;8.204;2023-05-07T10:16:03;57.77;42.53;83.29;;
48967;Laerm;46511;53.148;8.204;2023-05-07T10:18:35;57.21;43.39;72.67;;
48967;Laerm;46511;53.148;8.204;2023-05-07T10:23:51;52.86;41.82;66.31;;
48967;Laerm;46511;53.148;8.204;2023-05-07T10:26:25;51.03;40.98;69.83;;
48967;Laerm;46511;53.148;8.204;2023-05-07T10:29:02;53.87;41.61;69.72;;
48967;Laerm;46511;53.148;8.204;2023-05-07T10:34:39;58.10;42.09;72.92;;
48967;Laerm;46511;53.148;8.204;2023-05-07T10:37:12;54.93;41.82;77.90;;
48967;Laerm;46511;53.148;8.204;2023-05-07T10:39:44;59.49;42.82;73.88;;
48967;Laerm;46511;53.148;8.204;2023-05-07T10:42:16;54.35;39.92;75.01;;
48967;Laerm;46511;53.148;8.204;2023-05-07T10:44:48;55.21;42.71;72.41;;
48967;Laerm;46511;53.148;8.204;2023-05-07T10:47:21;53.63;41.53;70.21;;
48967;Laerm;46511;53.148;8.204;2023-05-07T10:52:36;56.45;42.59;78.74;;
48967;Laerm;46511;53.148;8.204;2023-05-07T10:57:47;51.35;41.14;72.79;;
48967;Laerm;46511;53.148;8.204;2023-05-07T11:05:32;61.01;42.59;76.00;;
48967;Laerm;46511;53.148;8.204;2023-05-07T11:08:04;50.13;40.89;63.04;;
48967;Laerm;46511;53.148;8.204;2023-05-07T11:10:53;58.94;42.29;77.18;;
48967;Laerm;46511;53.148;8.204;2023-05-07T11:13:44;55.46;40.80;75.90;;
48967;Laerm;46511;53.148;8.204;2023-05-07T11:16:22;59.65;41.53;81.70;;
48967;Laerm;46511;53.148;8.204;2023-05-07T11:18:57;56.73;41.61;79.02;;
48967;Laerm;46511;53.148;8.204;2023-05-07T11:21:36;58.59;43.39;74.29;;
48967;Laerm;46511;53.148;8.204;2023-05-07T11:24:05;55.41;42.98;75.17;;
48967;Laerm;46511;53.148;8.204;2023-05-07T11:29:19;57.24;41.61;76.79;;
48967;Laerm;46511;53.148;8.204;2023-05-07T11:31:52;57.71;42.41;73.59;;
48967;Laerm;46511;53.148;8.204;2023-05-07T11:34:26;60.36;43.09;80.07;;
48967;Laerm;46511;53.148;8.204;2023-05-07T11:36:58;57.51;42.65;69.00;;
48967;Laerm;46511;53.148;8.204;2023-05-07T11:39:31;56.24;42.35;70.82;;
48967;Laerm;46511;53.148;8.204;2023-05-07T11:42:04;56.62;42.59;69.78;;
48967;Laerm;46511;53.148;8.204;2023-05-07T11:44:45;57.56;42.65;76.98;;
48967;Laerm;46511;53.148;8.204;2023-05-07T11:47:18;52.59;42.88;72.00;;
48967;Laerm;46511;53.148;8.204;2023-05-07T11:49:52;57.17;43.54;72.20;;
48967;Laerm;46511;53.148;8.204;2023-05-07T11:52:24;57.24;43.09;69.70;;
48967;Laerm;46511;53.148;8.204;2023-05-07T11:54:57;56.81;42.93;70.25;;
48967;Laerm;46511;53.148;8.204;2023-05-07T11:57:24;54.51;41.68;68.54;;
48967;Laerm;46511;53.148;8.204;2023-05-07T11:59:56;60.59;42.71;74.08;;
48967;Laerm;46511;53.148;8.204;2023-05-07T12:02:23;55.24;42.41;74.91;;
48967;Laerm;46511;53.148;8.204;2023-05-07T12:04:55;61.61;42.65;85.54;;
48967;Laerm;46511;53.148;8.204;2023-05-07T12:07:27;54.25;42.76;67.80;;
48967;Laerm;46511;53.148;8.204;2023-05-07T12:09:58;58.11;43.19;76.51;;
48967;Laerm;46511;53.148;8.204;2023-05-07T12:12:29;53.63;42.22;66.36;;
48967;Laerm;46511;53.148;8.204;2023-05-07T12:15:01;52.40;41.46;66.79;;
48967;Laerm;46511;53.148;8.204;2023-05-07T12:17:32;54.46;41.96;68.05;;
48967;Laerm;46511;53.148;8.204;2023-05-07T12:20:04;59.24;42.82;72.46;;
48967;Laerm;46511;53.148;8.204;2023-05-07T12:22:36;56.38;41.61;77.14;;
48967;Laerm;46511;53.148;8.204;2023-05-07T12:25:08;56.14;42.35;70.32;;
48967;Laerm;46511;53.148;8.204;2023-05-07T12:27:40;58.39;43.14;77.51;;
48967;Laerm;46511;53.148;8.204;2023-05-07T12:30:12;55.19;42.82;70.81;;
48967;Laerm;46511;53.148;8.204;2023-05-07T12:32:45;57.35;44.43;76.14;;
48967;Laerm;46511;53.148;8.204;2023-05-07T12:35:16;57.65;43.68;70.18;;
48967;Laerm;46511;53.148;8.204;2023-05-07T12:37:55;54.05;41.68;66.33;;
48967;Laerm;46511;53.148;8.204;2023-05-07T12:40:21;62.09;42.47;75.18;;
48967;Laerm;46511;53.148;8.204;2023-05-07T12:42:53;56.32;42.88;74.12;;
48967;Laerm;46511;53.148;8.204;2023-05-07T12:45:27;56.98;41.82;71.53;;
48967;Laerm;46511;53.148;8.204;2023-05-07T12:48:01;57.08;42.53;67.64;;
48967;Laerm;46511;53.148;8.204;2023-05-07T12:50:34;53.70;41.89;71.03;;
48967;Laerm;46511;53.148;8.204;2023-05-07T12:53:06;56.33;43.14;79.16;;
48967;Laerm;46511;53.148;8.204;2023-05-07T12:55:46;54.74;42.76;73.22;;
48967;Laerm;46511;53.148;8.204;2023-05-07T12:58:40;60.76;41.30;81.45;;
48967;Laerm;46511;53.148;8.204;2023-05-07T13:01:10;51.60;41.38;69.62;;
48967;Laerm;46511;53.148;8.204;2023-05-07T13:03:48;57.21;43.04;73.09;;
48967;Laerm;46511;53.148;8.204;2023-05-07T13:06:21;60.35;46.05;75.35;;
48967;Laerm;46511;53.148;8.204;2023-05-07T13:08:52;65.02;52.30;77.87;;
48967;Laerm;46511;53.148;8.204;2023-05-07T13:11:19;65.82;43.77;78.56;;
48967;Laerm;46511;53.148;8.204;2023-05-07T13:13:50;56.29;43.72;75.52;;
48967;Laerm;46511;53.148;8.204;2023-05-07T13:16:16;54.11;43.44;71.15;;
48967;Laerm;46511;53.148;8.204;2023-05-07T13:18:48;55.16;42.88;66.22;;
48967;Laerm;46511;53.148;8.204;2023-05-07T13:21:19;57.15;42.09;66.92;;
48967;Laerm;46511;53.148;8.204;2023-05-07T13:23:45;57.18;43.04;74.01;;
48967;Laerm;46511;53.148;8.204;2023-05-07T13:26:17;55.53;42.88;69.62;;
48967;Laerm;46511;53.148;8.204;2023-05-07T13:28:48;55.47;42.22;65.33;;
48967;Laerm;46511;53.148;8.204;2023-05-07T13:31:19;57.66;42.71;76.53;;
48967;Laerm;46511;53.148;8.204;2023-05-07T13:33:52;55.33;41.75;71.52;;
48967;Laerm;46511;53.148;8.204;2023-05-07T13:36:23;57.64;41.61;70.66;;
48967;Laerm;46511;53.148;8.204;2023-05-07T13:38:50;49.23;41.38;69.55;;
48967;Laerm;46511;53.148;8.204;2023-05-07T13:41:22;55.65;43.54;67.15;;
48967;Laerm;46511;53.148;8.204;2023-05-07T13:43:48;57.44;41.61;77.53;;
48967;Laerm;46511;53.148;8.204;2023-05-07T13:46:20;54.93;42.82;70.08;;
48967;Laerm;46511;53.148;8.204;2023-05-07T13:48:51;53.93;42.22;72.21;;
48967;Laerm;46511;53.148;8.204;2023-05-07T13:51:23;53.65;41.75;72.07;;
48967;Laerm;46511;53.148;8.204;2023-05-07T13:53:54;56.66;42.03;70.77;;
48967;Laerm;46511;53.148;8.204;2023-05-07T13:56:25;54.53;42.41;76.91;;
48967;Laerm;46511;53.148;8.204;2023-05-07T13:58:52;58.89;42.09;83.78;;
48967;Laerm;46511;53.148;8.204;2023-05-07T14:01:23;54.48;41.96;75.75;;
48967;Laerm;46511;53.148;8.204;2023-05-07T14:03:56;56.82;43.14;74.89;;
48967;Laerm;46511;53.148;8.204;2023-05-07T14:06:28;57.80;42.47;77.90;;
48967;Laerm;46511;53.148;8.204;2023-05-07T14:08:54;54.61;42.53;70.52;;
48967;Laerm;46511;53.148;8.204;2023-05-07T14:11:25;60.20;41.22;78.28;;
48967;Laerm;46511;53.148;8.204;2023-05-07T14:13:57;48.81;40.71;65.60;;
48967;Laerm;46511;53.148;8.204;2023-05-07T14:16:29;54.09;41.96;69.62;;
48967;Laerm;46511;53.148;8.204;2023-05-07T14:19:00;57.96;42.59;72.62;;
48967;Laerm;46511;53.148;8.204;2023-05-07T14:21:31;57.25;42.93;70.72;;
48967;Laerm;46511;53.148;8.204;2023-05-07T14:24:03;53.08;41.53;70.63;;
48967;Laerm;46511;53.148;8.204;2023-05-07T14:26:35;55.52;41.06;67.47;;
48967;Laerm;46511;53.148;8.204;2023-05-07T14:29:06;57.74;43.19;79.38;;